sensor_id;sensor_type;location;lat;lon;timestamp;P1;durP1;ratioP1;P2;durP2;ratioP2
72891;SDS011;61032;50.782;6.818;2023-05-25T00:00:08;6.10;;;3.13;;
72891;SDS011;61032;50.782;6.818;2023-05-25T00:01:09;6.57;;;3.20;;
72891;SDS011;61032;50.782;6.818;2023-05-25T00:02:09;9.73;;;3.33;;
72891;SDS011;61032;50.782;6.818;2023-05-25T00:03:14;8.43;;;3.13;;
72891;SDS011;61032;50.782;6.818;2023-05-25T00:04:15;8.05;;;3.28;;
72891;SDS011;61032;50.782;6.818;2023-05-25T00:05:15;6.95;;;3.50;;
72891;SDS011;61032;50.782;6.818;2023-05-25T00:06:17;6.53;;;3.05;;
72891;SDS011;61032;50.782;6.818;2023-05-25T00:07:18;5.35;;;2.97;;
72891;SDS011;61032;50.782;6.818;2023-05-25T00:08:19;7.40;;;3.40;;
72891;SDS011;61032;50.782;6.818;2023-05-25T00:09:20;9.38;;;3.55;;
72891;SDS011;61032;50.782;6.818;2023-05-25T00:10:20;6.65;;;3.45;;
72891;SDS011;61032;50.782;6.818;2023-05-25T00:11:21;10.20;;;3.58;;
72891;SDS011;61032;50.782;6.818;2023-05-25T00:12:25;6.93;;;3.03;;
72891;SDS011;61032;50.782;6.818;2023-05-25T00:13:25;8.05;;;3.40;;
72891;SDS011;61032;50.782;6.818;2023-05-25T00:14:26;7.80;;;3.95;;
72891;SDS011;61032;50.782;6.818;2023-05-25T00:15:26;5.45;;;3.20;;
72891;SDS011;61032;50.782;6.818;2023-05-25T00:16:26;7.70;;;3.38;;
72891;SDS011;61032;50.782;6.818;2023-05-25T00:17:27;8.50;;;3.20;;
72891;SDS011;61032;50.782;6.818;2023-05-25T00:18:28;7.22;;;3.47;;
72891;SDS011;61032;50.782;6.818;2023-05-25T00:19:29;7.55;;;3.40;;
72891;SDS011;61032;50.782;6.818;2023-05-25T00:20:32;6.97;;;3.70;;
72891;SDS011;61032;50.782;6.818;2023-05-25T00:21:33;9.15;;;3.55;;
72891;SDS011;61032;50.782;6.818;2023-05-25T00:22:37;4.22;;;2.45;;
72891;SDS011;61032;50.782;6.818;2023-05-25T00:23:37;10.10;;;3.05;;
72891;SDS011;61032;50.782;6.818;2023-05-25T00:24:40;9.18;;;3.22;;
72891;SDS011;61032;50.782;6.818;2023-05-25T00:25:40;7.50;;;3.20;;
72891;SDS011;61032;50.782;6.818;2023-05-25T00:26:40;6.82;;;3.22;;
72891;SDS011;61032;50.782;6.818;2023-05-25T00:27:41;7.85;;;3.10;;
72891;SDS011;61032;50.782;6.818;2023-05-25T00:28:41;5.65;;;2.90;;
72891;SDS011;61032;50.782;6.818;2023-05-25T00:29:41;9.18;;;3.17;;
72891;SDS011;61032;50.782;6.818;2023-05-25T00:30:42;7.03;;;3.08;;
72891;SDS011;61032;50.782;6.818;2023-05-25T00:31:42;7.45;;;3.20;;
72891;SDS011;61032;50.782;6.818;2023-05-25T00:32:42;4.53;;;2.97;;
72891;SDS011;61032;50.782;6.818;2023-05-25T00:33:42;8.98;;;3.42;;
72891;SDS011;61032;50.782;6.818;2023-05-25T00:34:43;6.70;;;3.53;;
72891;SDS011;61032;50.782;6.818;2023-05-25T00:35:43;9.20;;;3.25;;
72891;SDS011;61032;50.782;6.818;2023-05-25T00:36:45;7.13;;;3.28;;
72891;SDS011;61032;50.782;6.818;2023-05-25T00:37:48;5.85;;;3.28;;
72891;SDS011;61032;50.782;6.818;2023-05-25T00:38:50;6.65;;;3.08;;
72891;SDS011;61032;50.782;6.818;2023-05-25T00:39:50;5.63;;;2.85;;
72891;SDS011;61032;50.782;6.818;2023-05-25T00:40:54;6.45;;;3.05;;
72891;SDS011;61032;50.782;6.818;2023-05-25T00:41:55;7.82;;;3.13;;
72891;SDS011;61032;50.782;6.818;2023-05-25T00:42:58;10.65;;;4.32;;
72891;SDS011;61032;50.782;6.818;2023-05-25T00:43:58;7.50;;;3.30;;
72891;SDS011;61032;50.782;6.818;2023-05-25T00:44:58;5.13;;;3.13;;
72891;SDS011;61032;50.782;6.818;2023-05-25T00:45:59;5.88;;;3.00;;
72891;SDS011;61032;50.782;6.818;2023-05-25T00:47:00;8.75;;;3.38;;
72891;SDS011;61032;50.782;6.818;2023-05-25T00:48:02;8.73;;;4.47;;
72891;SDS011;61032;50.782;6.818;2023-05-25T00:49:03;5.90;;;3.33;;
72891;SDS011;61032;50.782;6.818;2023-05-25T00:50:04;9.25;;;3.67;;
72891;SDS011;61032;50.782;6.818;2023-05-25T00:51:08;11.45;;;3.47;;
72891;SDS011;61032;50.782;6.818;2023-05-25T00:52:10;7.90;;;3.60;;
72891;SDS011;61032;50.782;6.818;2023-05-25T00:53:12;9.48;;;3.40;;
72891;SDS011;61032;50.782;6.818;2023-05-25T00:54:16;10.73;;;4.00;;
72891;SDS011;61032;50.782;6.818;2023-05-25T00:55:17;9.70;;;3.55;;
72891;SDS011;61032;50.782;6.818;2023-05-25T00:56:23;6.13;;;3.13;;
72891;SDS011;61032;50.782;6.818;2023-05-25T00:57:28;5.50;;;3.40;;
72891;SDS011;61032;50.782;6.818;2023-05-25T00:58:33;8.68;;;3.47;;
72891;SDS011;61032;50.782;6.818;2023-05-25T01:00:43;7.20;;;3.13;;
72891;SDS011;61032;50.782;6.818;2023-05-25T01:01:44;6.10;;;3.35;;
72891;SDS011;61032;50.782;6.818;2023-05-25T01:02:47;7.72;;;3.55;;
72891;SDS011;61032;50.782;6.818;2023-05-25T01:03:51;7.28;;;3.55;;
72891;SDS011;61032;50.782;6.818;2023-05-25T01:04:53;6.45;;;3.28;;
72891;SDS011;61032;50.782;6.818;2023-05-25T01:05:58;8.55;;;3.35;;
72891;SDS011;61032;50.782;6.818;2023-05-25T01:07:02;10.35;;;4.05;;
72891;SDS011;61032;50.782;6.818;2023-05-25T01:08:03;7.55;;;3.85;;
72891;SDS011;61032;50.782;6.818;2023-05-25T01:09:06;7.43;;;3.20;;
72891;SDS011;61032;50.782;6.818;2023-05-25T01:10:08;6.93;;;3.40;;
72891;SDS011;61032;50.782;6.818;2023-05-25T01:11:12;7.30;;;2.80;;
72891;SDS011;61032;50.782;6.818;2023-05-25T01:12:14;12.77;;;3.47;;
72891;SDS011;61032;50.782;6.818;2023-05-25T01:13:16;9.02;;;3.40;;
72891;SDS011;61032;50.782;6.818;2023-05-25T01:14:18;9.07;;;3.15;;
72891;SDS011;61032;50.782;6.818;2023-05-25T01:15:24;5.80;;;3.30;;
72891;SDS011;61032;50.782;6.818;2023-05-25T01:16:25;7.47;;;3.15;;
72891;SDS011;61032;50.782;6.818;2023-05-25T01:17:25;7.97;;;3.22;;
72891;SDS011;61032;50.782;6.818;2023-05-25T01:18:27;8.60;;;3.47;;
72891;SDS011;61032;50.782;6.818;2023-05-25T01:19:28;7.93;;;3.08;;
72891;SDS011;61032;50.782;6.818;2023-05-25T01:20:32;7.00;;;2.88;;
72891;SDS011;61032;50.782;6.818;2023-05-25T01:22:53;7.10;;;3.20;;
72891;SDS011;61032;50.782;6.818;2023-05-25T01:24:01;6.90;;;3.17;;
72891;SDS011;61032;50.782;6.818;2023-05-25T01:25:06;6.57;;;3.72;;
72891;SDS011;61032;50.782;6.818;2023-05-25T01:26:13;7.95;;;3.05;;
72891;SDS011;61032;50.782;6.818;2023-05-25T01:27:19;6.35;;;2.97;;
72891;SDS011;61032;50.782;6.818;2023-05-25T01:28:27;3.97;;;2.95;;
72891;SDS011;61032;50.782;6.818;2023-05-25T01:29:34;5.15;;;3.20;;
72891;SDS011;61032;50.782;6.818;2023-05-25T01:30:38;5.72;;;3.67;;
72891;SDS011;61032;50.782;6.818;2023-05-25T01:31:41;5.57;;;3.17;;
72891;SDS011;61032;50.782;6.818;2023-05-25T01:32:42;5.03;;;3.30;;
72891;SDS011;61032;50.782;6.818;2023-05-25T01:33:44;8.88;;;3.42;;
72891;SDS011;61032;50.782;6.818;2023-05-25T01:35:47;6.75;;;3.28;;
72891;SDS011;61032;50.782;6.818;2023-05-25T01:36:47;4.50;;;2.80;;
72891;SDS011;61032;50.782;6.818;2023-05-25T01:37:48;5.53;;;3.30;;
72891;SDS011;61032;50.782;6.818;2023-05-25T01:38:51;8.93;;;3.30;;
72891;SDS011;61032;50.782;6.818;2023-05-25T01:39:51;8.35;;;3.38;;
72891;SDS011;61032;50.782;6.818;2023-05-25T01:40:51;9.85;;;4.35;;
72891;SDS011;61032;50.782;6.818;2023-05-25T01:41:52;6.60;;;3.40;;
72891;SDS011;61032;50.782;6.818;2023-05-25T01:42:52;5.60;;;3.17;;
72891;SDS011;61032;50.782;6.818;2023-05-25T01:43:52;9.60;;;4.00;;
72891;SDS011;61032;50.782;6.818;2023-05-25T01:44:53;7.70;;;3.22;;
72891;SDS011;61032;50.782;6.818;2023-05-25T01:46:04;7.22;;;3.60;;
72891;SDS011;61032;50.782;6.818;2023-05-25T01:47:19;8.95;;;3.60;;
72891;SDS011;61032;50.782;6.818;2023-05-25T01:48:34;7.22;;;3.00;;
72891;SDS011;61032;50.782;6.818;2023-05-25T01:49:42;6.45;;;3.05;;
72891;SDS011;61032;50.782;6.818;2023-05-25T01:51:06;7.88;;;3.55;;
72891;SDS011;61032;50.782;6.818;2023-05-25T01:52:17;7.25;;;3.65;;
72891;SDS011;61032;50.782;6.818;2023-05-25T01:53:28;5.53;;;3.10;;
72891;SDS011;61032;50.782;6.818;2023-05-25T01:54:34;6.93;;;3.03;;
72891;SDS011;61032;50.782;6.818;2023-05-25T01:55:40;8.55;;;3.17;;
72891;SDS011;61032;50.782;6.818;2023-05-25T01:56:45;6.70;;;3.35;;
72891;SDS011;61032;50.782;6.818;2023-05-25T01:57:49;7.30;;;3.50;;
72891;SDS011;61032;50.782;6.818;2023-05-25T01:58:52;7.65;;;3.75;;
72891;SDS011;61032;50.782;6.818;2023-05-25T01:59:54;8.43;;;3.45;;
72891;SDS011;61032;50.782;6.818;2023-05-25T02:01:01;6.15;;;3.50;;
72891;SDS011;61032;50.782;6.818;2023-05-25T02:02:02;8.40;;;3.88;;
72891;SDS011;61032;50.782;6.818;2023-05-25T02:03:04;8.75;;;4.60;;
72891;SDS011;61032;50.782;6.818;2023-05-25T02:04:05;7.63;;;3.72;;
72891;SDS011;61032;50.782;6.818;2023-05-25T02:05:05;5.10;;;3.00;;
72891;SDS011;61032;50.782;6.818;2023-05-25T02:06:06;8.40;;;3.63;;
72891;SDS011;61032;50.782;6.818;2023-05-25T02:07:07;6.43;;;3.45;;
72891;SDS011;61032;50.782;6.818;2023-05-25T02:08:07;7.47;;;3.83;;
72891;SDS011;61032;50.782;6.818;2023-05-25T02:09:08;8.27;;;3.40;;
72891;SDS011;61032;50.782;6.818;2023-05-25T02:10:08;7.80;;;3.58;;
72891;SDS011;61032;50.782;6.818;2023-05-25T02:11:09;7.40;;;3.55;;
72891;SDS011;61032;50.782;6.818;2023-05-25T02:12:09;8.43;;;3.47;;
72891;SDS011;61032;50.782;6.818;2023-05-25T02:13:10;7.07;;;3.28;;
72891;SDS011;61032;50.782;6.818;2023-05-25T02:14:10;10.68;;;3.80;;
72891;SDS011;61032;50.782;6.818;2023-05-25T02:15:10;7.25;;;3.25;;
72891;SDS011;61032;50.782;6.818;2023-05-25T02:16:11;6.90;;;3.67;;
72891;SDS011;61032;50.782;6.818;2023-05-25T02:17:11;8.73;;;3.30;;
72891;SDS011;61032;50.782;6.818;2023-05-25T02:18:11;6.90;;;3.20;;
72891;SDS011;61032;50.782;6.818;2023-05-25T02:19:12;5.22;;;3.03;;
72891;SDS011;61032;50.782;6.818;2023-05-25T02:20:15;6.78;;;3.22;;
72891;SDS011;61032;50.782;6.818;2023-05-25T02:21:15;6.78;;;3.10;;
72891;SDS011;61032;50.782;6.818;2023-05-25T02:22:16;6.15;;;3.40;;
72891;SDS011;61032;50.782;6.818;2023-05-25T02:23:16;4.82;;;3.25;;
72891;SDS011;61032;50.782;6.818;2023-05-25T02:24:17;5.97;;;3.28;;
72891;SDS011;61032;50.782;6.818;2023-05-25T02:25:18;8.32;;;3.20;;
72891;SDS011;61032;50.782;6.818;2023-05-25T02:26:18;8.25;;;3.30;;
72891;SDS011;61032;50.782;6.818;2023-05-25T02:27:19;7.50;;;3.50;;
72891;SDS011;61032;50.782;6.818;2023-05-25T02:28:19;5.53;;;2.88;;
72891;SDS011;61032;50.782;6.818;2023-05-25T02:29:20;7.25;;;3.40;;
72891;SDS011;61032;50.782;6.818;2023-05-25T02:30:20;7.50;;;3.45;;
72891;SDS011;61032;50.782;6.818;2023-05-25T02:31:21;6.15;;;3.13;;
72891;SDS011;61032;50.782;6.818;2023-05-25T02:32:21;9.35;;;3.90;;
72891;SDS011;61032;50.782;6.818;2023-05-25T02:33:21;7.78;;;3.95;;
72891;SDS011;61032;50.782;6.818;2023-05-25T02:34:21;9.93;;;3.95;;
72891;SDS011;61032;50.782;6.818;2023-05-25T02:35:22;7.50;;;3.67;;
72891;SDS011;61032;50.782;6.818;2023-05-25T02:36:22;6.95;;;4.00;;
72891;SDS011;61032;50.782;6.818;2023-05-25T02:37:23;7.85;;;4.13;;
72891;SDS011;61032;50.782;6.818;2023-05-25T02:38:23;8.80;;;4.55;;
72891;SDS011;61032;50.782;6.818;2023-05-25T02:39:23;8.93;;;3.70;;
72891;SDS011;61032;50.782;6.818;2023-05-25T02:40:26;8.25;;;3.50;;
72891;SDS011;61032;50.782;6.818;2023-05-25T02:41:27;6.03;;;3.80;;
72891;SDS011;61032;50.782;6.818;2023-05-25T02:42:27;8.68;;;4.60;;
72891;SDS011;61032;50.782;6.818;2023-05-25T02:43:27;7.13;;;4.00;;
72891;SDS011;61032;50.782;6.818;2023-05-25T02:44:27;7.10;;;3.67;;
72891;SDS011;61032;50.782;6.818;2023-05-25T02:45:28;7.35;;;3.47;;
72891;SDS011;61032;50.782;6.818;2023-05-25T02:46:28;5.88;;;3.47;;
72891;SDS011;61032;50.782;6.818;2023-05-25T02:47:28;7.53;;;3.58;;
72891;SDS011;61032;50.782;6.818;2023-05-25T02:48:29;8.35;;;2.97;;
72891;SDS011;61032;50.782;6.818;2023-05-25T02:49:29;8.38;;;3.13;;
72891;SDS011;61032;50.782;6.818;2023-05-25T02:50:29;5.13;;;2.60;;
72891;SDS011;61032;50.782;6.818;2023-05-25T02:51:30;5.03;;;2.75;;
72891;SDS011;61032;50.782;6.818;2023-05-25T02:52:31;4.78;;;2.55;;
72891;SDS011;61032;50.782;6.818;2023-05-25T02:53:31;8.13;;;3.22;;
72891;SDS011;61032;50.782;6.818;2023-05-25T02:54:31;5.47;;;3.42;;
72891;SDS011;61032;50.782;6.818;2023-05-25T02:55:32;4.32;;;2.75;;
72891;SDS011;61032;50.782;6.818;2023-05-25T02:56:32;6.82;;;2.85;;
72891;SDS011;61032;50.782;6.818;2023-05-25T02:57:32;5.75;;;3.13;;
72891;SDS011;61032;50.782;6.818;2023-05-25T02:58:33;7.35;;;2.95;;
72891;SDS011;61032;50.782;6.818;2023-05-25T02:59:33;6.38;;;2.75;;
72891;SDS011;61032;50.782;6.818;2023-05-25T03:00:33;4.93;;;2.97;;
72891;SDS011;61032;50.782;6.818;2023-05-25T03:01:34;8.60;;;3.65;;
72891;SDS011;61032;50.782;6.818;2023-05-25T03:02:34;4.53;;;3.35;;
72891;SDS011;61032;50.782;6.818;2023-05-25T03:03:35;7.60;;;3.95;;
72891;SDS011;61032;50.782;6.818;2023-05-25T03:04:35;8.82;;;3.83;;
72891;SDS011;61032;50.782;6.818;2023-05-25T03:05:37;8.90;;;3.38;;
72891;SDS011;61032;50.782;6.818;2023-05-25T03:06:38;4.70;;;3.00;;
72891;SDS011;61032;50.782;6.818;2023-05-25T03:07:38;8.60;;;3.60;;
72891;SDS011;61032;50.782;6.818;2023-05-25T03:08:39;4.75;;;3.55;;
72891;SDS011;61032;50.782;6.818;2023-05-25T03:09:40;6.28;;;3.55;;
72891;SDS011;61032;50.782;6.818;2023-05-25T03:10:40;6.13;;;3.42;;
72891;SDS011;61032;50.782;6.818;2023-05-25T03:11:40;10.00;;;3.97;;
72891;SDS011;61032;50.782;6.818;2023-05-25T03:12:41;8.20;;;3.15;;
72891;SDS011;61032;50.782;6.818;2023-05-25T03:13:41;6.47;;;3.08;;
72891;SDS011;61032;50.782;6.818;2023-05-25T03:14:41;8.70;;;3.17;;
72891;SDS011;61032;50.782;6.818;2023-05-25T03:15:42;7.28;;;3.85;;
72891;SDS011;61032;50.782;6.818;2023-05-25T03:16:42;5.93;;;3.70;;
72891;SDS011;61032;50.782;6.818;2023-05-25T03:17:42;6.35;;;3.30;;
72891;SDS011;61032;50.782;6.818;2023-05-25T03:18:42;5.65;;;3.33;;
72891;SDS011;61032;50.782;6.818;2023-05-25T03:19:43;6.28;;;3.30;;
72891;SDS011;61032;50.782;6.818;2023-05-25T03:20:43;6.78;;;3.65;;
72891;SDS011;61032;50.782;6.818;2023-05-25T03:21:45;7.40;;;3.38;;
72891;SDS011;61032;50.782;6.818;2023-05-25T03:22:46;5.80;;;3.28;;
72891;SDS011;61032;50.782;6.818;2023-05-25T03:23:46;7.47;;;4.32;;
72891;SDS011;61032;50.782;6.818;2023-05-25T03:24:47;8.93;;;4.22;;
72891;SDS011;61032;50.782;6.818;2023-05-25T03:25:49;9.98;;;3.85;;
72891;SDS011;61032;50.782;6.818;2023-05-25T03:26:50;8.10;;;4.22;;
72891;SDS011;61032;50.782;6.818;2023-05-25T03:27:50;8.02;;;3.90;;
72891;SDS011;61032;50.782;6.818;2023-05-25T03:29:52;9.63;;;3.95;;
72891;SDS011;61032;50.782;6.818;2023-05-25T03:30:53;8.50;;;3.83;;
72891;SDS011;61032;50.782;6.818;2023-05-25T03:31:53;7.00;;;3.58;;
72891;SDS011;61032;50.782;6.818;2023-05-25T03:32:54;5.22;;;2.97;;
72891;SDS011;61032;50.782;6.818;2023-05-25T03:33:54;7.20;;;3.35;;
72891;SDS011;61032;50.782;6.818;2023-05-25T03:34:55;6.43;;;3.25;;
72891;SDS011;61032;50.782;6.818;2023-05-25T03:35:55;8.75;;;4.32;;
72891;SDS011;61032;50.782;6.818;2023-05-25T03:36:55;6.75;;;3.88;;
72891;SDS011;61032;50.782;6.818;2023-05-25T03:37:56;4.88;;;3.33;;
72891;SDS011;61032;50.782;6.818;2023-05-25T03:38:56;6.68;;;3.15;;
72891;SDS011;61032;50.782;6.818;2023-05-25T03:39:56;6.97;;;3.13;;
72891;SDS011;61032;50.782;6.818;2023-05-25T03:40:57;7.88;;;4.20;;
72891;SDS011;61032;50.782;6.818;2023-05-25T03:41:57;7.93;;;4.03;;
72891;SDS011;61032;50.782;6.818;2023-05-25T03:42:59;8.32;;;3.25;;
72891;SDS011;61032;50.782;6.818;2023-05-25T03:43:59;7.80;;;3.22;;
72891;SDS011;61032;50.782;6.818;2023-05-25T03:45:00;5.75;;;3.75;;
72891;SDS011;61032;50.782;6.818;2023-05-25T03:46:00;6.40;;;3.17;;
72891;SDS011;61032;50.782;6.818;2023-05-25T03:47:00;8.75;;;4.25;;
72891;SDS011;61032;50.782;6.818;2023-05-25T03:48:01;10.98;;;3.72;;
72891;SDS011;61032;50.782;6.818;2023-05-25T03:49:01;7.55;;;3.40;;
72891;SDS011;61032;50.782;6.818;2023-05-25T03:50:02;9.23;;;3.60;;
72891;SDS011;61032;50.782;6.818;2023-05-25T03:51:04;9.25;;;3.60;;
72891;SDS011;61032;50.782;6.818;2023-05-25T03:52:05;7.63;;;3.63;;
72891;SDS011;61032;50.782;6.818;2023-05-25T03:53:06;7.93;;;3.92;;
72891;SDS011;61032;50.782;6.818;2023-05-25T03:54:07;6.90;;;3.78;;
72891;SDS011;61032;50.782;6.818;2023-05-25T03:55:08;9.70;;;4.28;;
72891;SDS011;61032;50.782;6.818;2023-05-25T03:56:08;6.53;;;4.07;;
72891;SDS011;61032;50.782;6.818;2023-05-25T03:57:09;6.20;;;3.40;;
72891;SDS011;61032;50.782;6.818;2023-05-25T03:58:09;8.35;;;3.72;;
72891;SDS011;61032;50.782;6.818;2023-05-25T03:59:10;7.82;;;3.90;;
72891;SDS011;61032;50.782;6.818;2023-05-25T04:00:11;7.80;;;3.70;;
72891;SDS011;61032;50.782;6.818;2023-05-25T04:01:12;7.65;;;3.50;;
72891;SDS011;61032;50.782;6.818;2023-05-25T04:02:13;6.32;;;3.60;;
72891;SDS011;61032;50.782;6.818;2023-05-25T04:03:13;7.55;;;3.90;;
72891;SDS011;61032;50.782;6.818;2023-05-25T04:04:14;9.25;;;4.13;;
72891;SDS011;61032;50.782;6.818;2023-05-25T04:05:14;8.13;;;3.72;;
72891;SDS011;61032;50.782;6.818;2023-05-25T04:06:15;8.63;;;4.22;;
72891;SDS011;61032;50.782;6.818;2023-05-25T04:07:18;6.97;;;3.65;;
72891;SDS011;61032;50.782;6.818;2023-05-25T04:08:19;8.80;;;4.60;;
72891;SDS011;61032;50.782;6.818;2023-05-25T04:09:19;7.53;;;3.45;;
72891;SDS011;61032;50.782;6.818;2023-05-25T04:10:19;7.97;;;4.20;;
72891;SDS011;61032;50.782;6.818;2023-05-25T04:11:20;6.95;;;3.58;;
72891;SDS011;61032;50.782;6.818;2023-05-25T04:12:23;7.47;;;3.65;;
72891;SDS011;61032;50.782;6.818;2023-05-25T04:13:25;6.95;;;4.00;;
72891;SDS011;61032;50.782;6.818;2023-05-25T04:14:25;8.85;;;3.92;;
72891;SDS011;61032;50.782;6.818;2023-05-25T04:15:25;6.28;;;3.63;;
72891;SDS011;61032;50.782;6.818;2023-05-25T04:16:27;7.18;;;4.53;;
72891;SDS011;61032;50.782;6.818;2023-05-25T04:17:28;5.78;;;3.97;;
72891;SDS011;61032;50.782;6.818;2023-05-25T04:18:28;6.65;;;3.60;;
72891;SDS011;61032;50.782;6.818;2023-05-25T04:19:29;6.25;;;4.47;;
72891;SDS011;61032;50.782;6.818;2023-05-25T04:20:30;6.65;;;3.90;;
72891;SDS011;61032;50.782;6.818;2023-05-25T04:21:32;6.32;;;3.40;;
72891;SDS011;61032;50.782;6.818;2023-05-25T04:22:33;6.50;;;3.42;;
72891;SDS011;61032;50.782;6.818;2023-05-25T04:23:37;7.93;;;3.75;;
72891;SDS011;61032;50.782;6.818;2023-05-25T04:24:38;8.18;;;4.05;;
72891;SDS011;61032;50.782;6.818;2023-05-25T04:25:39;7.88;;;3.83;;
72891;SDS011;61032;50.782;6.818;2023-05-25T04:26:41;7.15;;;3.88;;
72891;SDS011;61032;50.782;6.818;2023-05-25T04:27:41;8.80;;;3.83;;
72891;SDS011;61032;50.782;6.818;2023-05-25T04:28:42;8.85;;;3.40;;
72891;SDS011;61032;50.782;6.818;2023-05-25T04:29:44;10.60;;;4.47;;
72891;SDS011;61032;50.782;6.818;2023-05-25T04:30:46;9.43;;;4.38;;
72891;SDS011;61032;50.782;6.818;2023-05-25T04:31:47;10.13;;;3.72;;
72891;SDS011;61032;50.782;6.818;2023-05-25T04:32:48;6.93;;;3.50;;
72891;SDS011;61032;50.782;6.818;2023-05-25T04:33:49;6.97;;;3.58;;
72891;SDS011;61032;50.782;6.818;2023-05-25T04:34:49;9.02;;;4.30;;
72891;SDS011;61032;50.782;6.818;2023-05-25T04:35:51;6.75;;;4.03;;
72891;SDS011;61032;50.782;6.818;2023-05-25T04:36:53;7.85;;;4.30;;
72891;SDS011;61032;50.782;6.818;2023-05-25T04:37:54;9.43;;;4.25;;
72891;SDS011;61032;50.782;6.818;2023-05-25T04:39:02;7.72;;;4.07;;
72891;SDS011;61032;50.782;6.818;2023-05-25T04:40:05;7.40;;;3.80;;
72891;SDS011;61032;50.782;6.818;2023-05-25T04:41:15;8.68;;;4.00;;
72891;SDS011;61032;50.782;6.818;2023-05-25T04:42:16;8.63;;;4.38;;
72891;SDS011;61032;50.782;6.818;2023-05-25T04:43:17;9.90;;;4.20;;
72891;SDS011;61032;50.782;6.818;2023-05-25T04:44:19;7.43;;;4.47;;
72891;SDS011;61032;50.782;6.818;2023-05-25T04:45:21;10.40;;;4.78;;
72891;SDS011;61032;50.782;6.818;2023-05-25T04:46:23;8.35;;;4.07;;
72891;SDS011;61032;50.782;6.818;2023-05-25T04:47:26;8.82;;;4.05;;
72891;SDS011;61032;50.782;6.818;2023-05-25T04:48:28;8.57;;;3.50;;
72891;SDS011;61032;50.782;6.818;2023-05-25T04:49:31;6.22;;;3.60;;
72891;SDS011;61032;50.782;6.818;2023-05-25T04:50:32;6.70;;;4.03;;
72891;SDS011;61032;50.782;6.818;2023-05-25T04:51:33;9.25;;;4.13;;
72891;SDS011;61032;50.782;6.818;2023-05-25T04:52:33;8.00;;;4.45;;
72891;SDS011;61032;50.782;6.818;2023-05-25T04:53:34;7.22;;;3.83;;
72891;SDS011;61032;50.782;6.818;2023-05-25T04:54:35;7.78;;;3.58;;
72891;SDS011;61032;50.782;6.818;2023-05-25T04:55:36;10.65;;;4.43;;
72891;SDS011;61032;50.782;6.818;2023-05-25T04:56:39;5.85;;;3.72;;
72891;SDS011;61032;50.782;6.818;2023-05-25T04:57:39;5.90;;;3.50;;
72891;SDS011;61032;50.782;6.818;2023-05-25T04:58:40;8.75;;;4.25;;
72891;SDS011;61032;50.782;6.818;2023-05-25T04:59:41;9.32;;;4.30;;
72891;SDS011;61032;50.782;6.818;2023-05-25T05:00:42;9.70;;;4.63;;
72891;SDS011;61032;50.782;6.818;2023-05-25T05:01:42;9.25;;;4.35;;
72891;SDS011;61032;50.782;6.818;2023-05-25T05:02:43;9.85;;;3.85;;
72891;SDS011;61032;50.782;6.818;2023-05-25T05:03:44;8.27;;;3.92;;
72891;SDS011;61032;50.782;6.818;2023-05-25T05:04:45;7.95;;;4.30;;
72891;SDS011;61032;50.782;6.818;2023-05-25T05:05:45;13.23;;;4.82;;
72891;SDS011;61032;50.782;6.818;2023-05-25T05:06:46;8.93;;;4.38;;
72891;SDS011;61032;50.782;6.818;2023-05-25T05:07:46;9.88;;;4.15;;
72891;SDS011;61032;50.782;6.818;2023-05-25T05:08:47;9.32;;;4.50;;
72891;SDS011;61032;50.782;6.818;2023-05-25T05:09:48;7.88;;;4.40;;
72891;SDS011;61032;50.782;6.818;2023-05-25T05:10:49;6.88;;;4.22;;
72891;SDS011;61032;50.782;6.818;2023-05-25T05:11:50;8.60;;;4.68;;
72891;SDS011;61032;50.782;6.818;2023-05-25T05:12:50;6.25;;;4.30;;
72891;SDS011;61032;50.782;6.818;2023-05-25T05:13:51;7.90;;;3.88;;
72891;SDS011;61032;50.782;6.818;2023-05-25T05:14:51;6.72;;;4.43;;
72891;SDS011;61032;50.782;6.818;2023-05-25T05:15:52;9.63;;;4.70;;
72891;SDS011;61032;50.782;6.818;2023-05-25T05:16:53;7.82;;;4.50;;
72891;SDS011;61032;50.782;6.818;2023-05-25T05:17:54;11.48;;;5.22;;
72891;SDS011;61032;50.782;6.818;2023-05-25T05:18:55;6.18;;;4.18;;
72891;SDS011;61032;50.782;6.818;2023-05-25T05:19:55;10.57;;;4.53;;
72891;SDS011;61032;50.782;6.818;2023-05-25T05:20:57;7.88;;;4.00;;
72891;SDS011;61032;50.782;6.818;2023-05-25T05:21:59;12.80;;;4.82;;
72891;SDS011;61032;50.782;6.818;2023-05-25T05:23:00;10.98;;;4.70;;
72891;SDS011;61032;50.782;6.818;2023-05-25T05:24:01;10.50;;;4.38;;
72891;SDS011;61032;50.782;6.818;2023-05-25T05:25:02;9.57;;;5.63;;
72891;SDS011;61032;50.782;6.818;2023-05-25T05:26:03;8.50;;;4.53;;
72891;SDS011;61032;50.782;6.818;2023-05-25T05:27:06;9.60;;;4.85;;
72891;SDS011;61032;50.782;6.818;2023-05-25T05:28:10;8.80;;;4.20;;
72891;SDS011;61032;50.782;6.818;2023-05-25T05:29:11;9.93;;;4.70;;
72891;SDS011;61032;50.782;6.818;2023-05-25T05:30:12;7.75;;;4.43;;
72891;SDS011;61032;50.782;6.818;2023-05-25T05:31:13;8.75;;;4.68;;
72891;SDS011;61032;50.782;6.818;2023-05-25T05:32:16;11.35;;;4.80;;
72891;SDS011;61032;50.782;6.818;2023-05-25T05:33:16;8.45;;;4.57;;
72891;SDS011;61032;50.782;6.818;2023-05-25T05:34:17;10.23;;;4.95;;
72891;SDS011;61032;50.782;6.818;2023-05-25T05:35:17;9.43;;;5.28;;
72891;SDS011;61032;50.782;6.818;2023-05-25T05:36:18;8.93;;;5.35;;
72891;SDS011;61032;50.782;6.818;2023-05-25T05:37:18;9.73;;;4.85;;
72891;SDS011;61032;50.782;6.818;2023-05-25T05:38:19;11.13;;;5.53;;
72891;SDS011;61032;50.782;6.818;2023-05-25T05:39:20;9.15;;;4.75;;
72891;SDS011;61032;50.782;6.818;2023-05-25T05:40:21;9.70;;;4.85;;
72891;SDS011;61032;50.782;6.818;2023-05-25T05:41:22;12.00;;;5.10;;
72891;SDS011;61032;50.782;6.818;2023-05-25T05:42:23;10.20;;;4.45;;
72891;SDS011;61032;50.782;6.818;2023-05-25T05:43:23;9.00;;;4.90;;
72891;SDS011;61032;50.782;6.818;2023-05-25T05:44:24;8.00;;;4.40;;
72891;SDS011;61032;50.782;6.818;2023-05-25T05:45:24;8.40;;;4.57;;
72891;SDS011;61032;50.782;6.818;2023-05-25T05:46:25;10.45;;;4.68;;
72891;SDS011;61032;50.782;6.818;2023-05-25T05:47:25;9.05;;;5.35;;
72891;SDS011;61032;50.782;6.818;2023-05-25T05:48:27;7.22;;;4.57;;
72891;SDS011;61032;50.782;6.818;2023-05-25T05:49:28;15.38;;;5.32;;
72891;SDS011;61032;50.782;6.818;2023-05-25T05:50:30;11.88;;;4.82;;
72891;SDS011;61032;50.782;6.818;2023-05-25T05:51:31;9.35;;;4.97;;
72891;SDS011;61032;50.782;6.818;2023-05-25T05:52:31;11.05;;;5.43;;
72891;SDS011;61032;50.782;6.818;2023-05-25T05:53:32;14.10;;;5.53;;
72891;SDS011;61032;50.782;6.818;2023-05-25T05:55:35;10.02;;;5.70;;
72891;SDS011;61032;50.782;6.818;2023-05-25T05:56:35;14.25;;;5.28;;
72891;SDS011;61032;50.782;6.818;2023-05-25T05:57:36;12.32;;;5.05;;
72891;SDS011;61032;50.782;6.818;2023-05-25T05:58:36;13.98;;;5.35;;
72891;SDS011;61032;50.782;6.818;2023-05-25T05:59:36;11.30;;;5.97;;
72891;SDS011;61032;50.782;6.818;2023-05-25T06:00:37;15.02;;;5.32;;
72891;SDS011;61032;50.782;6.818;2023-05-25T06:01:37;14.20;;;5.32;;
72891;SDS011;61032;50.782;6.818;2023-05-25T06:02:37;11.50;;;5.60;;
72891;SDS011;61032;50.782;6.818;2023-05-25T06:03:38;12.63;;;5.40;;
72891;SDS011;61032;50.782;6.818;2023-05-25T06:04:38;11.98;;;6.03;;
72891;SDS011;61032;50.782;6.818;2023-05-25T06:05:39;12.82;;;6.00;;
72891;SDS011;61032;50.782;6.818;2023-05-25T06:06:40;13.27;;;6.40;;
72891;SDS011;61032;50.782;6.818;2023-05-25T06:08:43;11.32;;;5.28;;
72891;SDS011;61032;50.782;6.818;2023-05-25T06:09:44;11.60;;;5.68;;
72891;SDS011;61032;50.782;6.818;2023-05-25T06:10:44;13.18;;;5.53;;
72891;SDS011;61032;50.782;6.818;2023-05-25T06:11:45;10.57;;;5.25;;
72891;SDS011;61032;50.782;6.818;2023-05-25T06:12:46;8.30;;;4.85;;
72891;SDS011;61032;50.782;6.818;2023-05-25T06:13:46;10.52;;;4.45;;
72891;SDS011;61032;50.782;6.818;2023-05-25T06:14:47;14.32;;;5.72;;
72891;SDS011;61032;50.782;6.818;2023-05-25T06:15:49;13.80;;;5.63;;